sensor_id;sensor_type;location;lat;lon;timestamp;pressure;altitude;pressure_sealevel;temperature;humidity
19884;BME280;10104;50.732;10.174;2024-03-02T00:00:16;96778.53;;;7.46;100.00
19884;BME280;10104;50.732;10.174;2024-03-02T00:02:56;96782.81;;;7.47;100.00
19884;BME280;10104;50.732;10.174;2024-03-02T00:05:36;96777.53;;;7.47;100.00
19884;BME280;10104;50.732;10.174;2024-03-02T00:08:22;96775.91;;;7.46;100.00
19884;BME280;10104;50.732;10.174;2024-03-02T00:11:04;96785.00;;;7.43;100.00
19884;BME280;10104;50.732;10.174;2024-03-02T00:13:45;96781.19;;;7.46;100.00
19884;BME280;10104;50.732;10.174;2024-03-02T00:16:30;96779.94;;;7.48;100.00
19884;BME280;10104;50.732;10.174;2024-03-02T00:19:11;96777.94;;;7.50;100.00
19884;BME280;10104;50.732;10.174;2024-03-02T00:21:51;96778.94;;;7.49;100.00
19884;BME280;10104;50.732;10.174;2024-03-02T00:24:34;96784.00;;;7.44;100.00
19884;BME280;10104;50.732;10.174;2024-03-02T00:27:15;96780.97;;;7.47;100.00
19884;BME280;10104;50.732;10.174;2024-03-02T00:29:56;96782.63;;;7.55;100.00
19884;BME280;10104;50.732;10.174;2024-03-02T00:32:37;96774.91;;;7.53;100.00
19884;BME280;10104;50.732;10.174;2024-03-02T00:35:17;96778.31;;;7.47;100.00
19884;BME280;10104;50.732;10.174;2024-03-02T00:37:58;96769.13;;;7.30;100.00
19884;BME280;10104;50.732;10.174;2024-03-02T00:40:38;96772.53;;;7.24;100.00
19884;BME280;10104;50.732;10.174;2024-03-02T00:46:16;96779.84;;;7.22;100.00
19884;BME280;10104;50.732;10.174;2024-03-02T00:48:59;96779.03;;;7.21;100.00
19884;BME280;10104;50.732;10.174;2024-03-02T00:51:40;96780.44;;;7.24;100.00
19884;BME280;10104;50.732;10.174;2024-03-02T00:54:27;96782.47;;;7.22;100.00
19884;BME280;10104;50.732;10.174;2024-03-02T00:57:10;96779.41;;;7.18;100.00
19884;BME280;10104;50.732;10.174;2024-03-02T00:59:52;96784.28;;;7.21;100.00
19884;BME280;10104;50.732;10.174;2024-03-02T01:02:32;96788.50;;;7.16;100.00
19884;BME280;10104;50.732;10.174;2024-03-02T01:05:12;96792.75;;;7.17;100.00
19884;BME280;10104;50.732;10.174;2024-03-02T01:07:53;96792.56;;;7.18;100.00
19884;BME280;10104;50.732;10.174;2024-03-02T01:10:33;96798.50;;;7.27;100.00
19884;BME280;10104;50.732;10.174;2024-03-02T01:13:13;96794.28;;;7.32;100.00
19884;BME280;10104;50.732;10.174;2024-03-02T01:15:53;96802.38;;;7.38;100.00
19884;BME280;10104;50.732;10.174;2024-03-02T01:18:33;96809.91;;;7.47;100.00
19884;BME280;10104;50.732;10.174;2024-03-02T01:21:14;96807.06;;;7.42;100.00
19884;BME280;10104;50.732;10.174;2024-03-02T01:23:54;96801.03;;;7.48;100.00
19884;BME280;10104;50.732;10.174;2024-03-02T01:26:34;96801.25;;;7.47;100.00
19884;BME280;10104;50.732;10.174;2024-03-02T01:29:14;96797.97;;;7.45;100.00
19884;BME280;10104;50.732;10.174;2024-03-02T01:31:55;96793.66;;;7.30;100.00
19884;BME280;10104;50.732;10.174;2024-03-02T01:34:35;96785.94;;;7.29;100.00
19884;BME280;10104;50.732;10.174;2024-03-02T01:37:15;96788.13;;;7.19;100.00
19884;BME280;10104;50.732;10.174;2024-03-02T01:39:55;96790.56;;;7.20;100.00
19884;BME280;10104;50.732;10.174;2024-03-02T01:42:37;96790.94;;;7.17;100.00
19884;BME280;10104;50.732;10.174;2024-03-02T01:45:17;96787.47;;;7.17;100.00
19884;BME280;10104;50.732;10.174;2024-03-02T01:47:58;96789.69;;;7.13;100.00
19884;BME280;10104;50.732;10.174;2024-03-02T01:50:38;96789.88;;;7.12;100.00
19884;BME280;10104;50.732;10.174;2024-03-02T01:53:18;96782.41;;;7.09;100.00
19884;BME280;10104;50.732;10.174;2024-03-02T01:56:01;96785.25;;;7.14;100.00
19884;BME280;10104;50.732;10.174;2024-03-02T01:58:41;96784.00;;;7.10;100.00
19884;BME280;10104;50.732;10.174;2024-03-02T02:01:22;96790.84;;;7.04;100.00
19884;BME280;10104;50.732;10.174;2024-03-02T02:04:03;96787.84;;;7.07;100.00
19884;BME280;10104;50.732;10.174;2024-03-02T02:06:46;96788.38;;;6.96;100.00
19884;BME280;10104;50.732;10.174;2024-03-02T02:09:26;96785.53;;;6.98;100.00
19884;BME280;10104;50.732;10.174;2024-03-02T02:12:07;96779.69;;;6.96;100.00
19884;BME280;10104;50.732;10.174;2024-03-02T02:14:48;96784.75;;;6.97;100.00
19884;BME280;10104;50.732;10.174;2024-03-02T02:17:29;96780.44;;;6.89;100.00
19884;BME280;10104;50.732;10.174;2024-03-02T02:20:10;96774.00;;;6.99;100.00
19884;BME280;10104;50.732;10.174;2024-03-02T02:22:54;96770.53;;;6.91;100.00
19884;BME280;10104;50.732;10.174;2024-03-02T02:25:35;96777.00;;;6.89;100.00
19884;BME280;10104;50.732;10.174;2024-03-02T02:28:15;96766.47;;;6.89;100.00
19884;BME280;10104;50.732;10.174;2024-03-02T02:30:55;96766.47;;;6.89;100.00
19884;BME280;10104;50.732;10.174;2024-03-02T02:33:41;96763.84;;;6.89;100.00
19884;BME280;10104;50.732;10.174;2024-03-02T02:36:21;96762.41;;;6.86;100.00
19884;BME280;10104;50.732;10.174;2024-03-02T02:39:03;96755.72;;;6.84;100.00
19884;BME280;10104;50.732;10.174;2024-03-02T02:41:43;96762.56;;;6.78;100.00
19884;BME280;10104;50.732;10.174;2024-03-02T02:44:24;96759.34;;;6.83;100.00
19884;BME280;10104;50.732;10.174;2024-03-02T02:47:04;96761.00;;;6.84;100.00
19884;BME280;10104;50.732;10.174;2024-03-02T02:49:44;96760.59;;;6.87;100.00
19884;BME280;10104;50.732;10.174;2024-03-02T02:52:25;96751.09;;;6.93;100.00
19884;BME280;10104;50.732;10.174;2024-03-02T02:55:07;96753.38;;;6.96;100.00
19884;BME280;10104;50.732;10.174;2024-03-02T02:57:47;96740.41;;;6.94;100.00
19884;BME280;10104;50.732;10.174;2024-03-02T03:00:27;96738.75;;;6.93;100.00
19884;BME280;10104;50.732;10.174;2024-03-02T03:03:08;96742.25;;;7.00;100.00
19884;BME280;10104;50.732;10.174;2024-03-02T03:05:48;96749.00;;;7.09;100.00
19884;BME280;10104;50.732;10.174;2024-03-02T03:08:29;96738.22;;;7.04;100.00
19884;BME280;10104;50.732;10.174;2024-03-02T03:11:09;96746.78;;;7.13;100.00
19884;BME280;10104;50.732;10.174;2024-03-02T03:13:49;96742.91;;;7.09;100.00
19884;BME280;10104;50.732;10.174;2024-03-02T03:16:29;96746.38;;;7.09;100.00
19884;BME280;10104;50.732;10.174;2024-03-02T03:19:09;96748.56;;;7.06;100.00
19884;BME280;10104;50.732;10.174;2024-03-02T03:21:50;96752.59;;;7.02;100.00
19884;BME280;10104;50.732;10.174;2024-03-02T03:24:30;96742.28;;;7.07;100.00
19884;BME280;10104;50.732;10.174;2024-03-02T03:27:10;96738.25;;;7.11;100.00
19884;BME280;10104;50.732;10.174;2024-03-02T03:29:52;96742.28;;;7.07;100.00
19884;BME280;10104;50.732;10.174;2024-03-02T03:32:32;96743.28;;;7.06;100.00
19884;BME280;10104;50.732;10.174;2024-03-02T03:35:12;96742.88;;;7.02;100.00
19884;BME280;10104;50.732;10.174;2024-03-02T03:37:54;96733.94;;;6.97;100.00
19884;BME280;10104;50.732;10.174;2024-03-02T03:40:34;96747.50;;;7.00;100.00
19884;BME280;10104;50.732;10.174;2024-03-02T03:43:14;96729.91;;;7.01;100.00
19884;BME280;10104;50.732;10.174;2024-03-02T03:45:55;96731.91;;;6.99;100.00
19884;BME280;10104;50.732;10.174;2024-03-02T03:48:35;96730.50;;;6.96;100.00
19884;BME280;10104;50.732;10.174;2024-03-02T03:51:15;96731.09;;;6.98;100.00
19884;BME280;10104;50.732;10.174;2024-03-02T03:53:56;96739.59;;;6.94;100.00
19884;BME280;10104;50.732;10.174;2024-03-02T03:56:36;96738.34;;;6.89;100.00
19884;BME280;10104;50.732;10.174;2024-03-02T03:59:16;96724.41;;;6.96;100.00
19884;BME280;10104;50.732;10.174;2024-03-02T04:01:57;96727.00;;;6.89;100.00
19884;BME280;10104;50.732;10.174;2024-03-02T04:04:37;96725.56;;;6.86;100.00
19884;BME280;10104;50.732;10.174;2024-03-02T04:07:17;96725.56;;;6.86;100.00
19884;BME280;10104;50.732;10.174;2024-03-02T04:09:57;96715.25;;;6.85;100.00
19884;BME280;10104;50.732;10.174;2024-03-02T04:12:38;96723.94;;;6.85;100.00
19884;BME280;10104;50.732;10.174;2024-03-02T04:15:18;96727.16;;;6.81;100.00
19884;BME280;10104;50.732;10.174;2024-03-02T04:17:58;96725.13;;;6.76;100.00
19884;BME280;10104;50.732;10.174;2024-03-02T04:20:39;96731.38;;;6.75;100.00
19884;BME280;10104;50.732;10.174;2024-03-02T04:23:19;96722.25;;;6.71;100.00
19884;BME280;10104;50.732;10.174;2024-03-02T04:25:59;96725.66;;;6.65;100.00
19884;BME280;10104;50.732;10.174;2024-03-02T04:28:39;96736.53;;;6.62;100.00
19884;BME280;10104;50.732;10.174;2024-03-02T04:31:20;96731.88;;;6.58;100.00
19884;BME280;10104;50.732;10.174;2024-03-02T04:34:00;96747.22;;;6.54;100.00
19884;BME280;10104;50.732;10.174;2024-03-02T04:36:41;96732.56;;;6.45;100.00
19884;BME280;10104;50.732;10.174;2024-03-02T04:39:21;96740.03;;;6.41;100.00
19884;BME280;10104;50.732;10.174;2024-03-02T04:42:01;96740.22;;;6.40;100.00
19884;BME280;10104;50.732;10.174;2024-03-02T04:44:42;96740.59;;;6.37;100.00
19884;BME280;10104;50.732;10.174;2024-03-02T04:47:23;96742.56;;;6.28;100.00
19884;BME280;10104;50.732;10.174;2024-03-02T04:50:03;96740.47;;;6.24;100.00
19884;BME280;10104;50.732;10.174;2024-03-02T04:52:43;96742.75;;;6.27;100.00
19884;BME280;10104;50.732;10.174;2024-03-02T04:55:23;96752.63;;;6.25;100.00
19884;BME280;10104;50.732;10.174;2024-03-02T04:58:30;96752.63;;;6.25;100.00
19884;BME280;10104;50.732;10.174;2024-03-02T05:01:10;96759.63;;;6.18;100.00
19884;BME280;10104;50.732;10.174;2024-03-02T05:03:51;96763.06;;;6.18;100.00
19884;BME280;10104;50.732;10.174;2024-03-02T05:06:31;96767.91;;;6.15;100.00
19884;BME280;10104;50.732;10.174;2024-03-02T05:09:12;96772.41;;;6.21;100.00
19884;BME280;10104;50.732;10.174;2024-03-02T05:11:52;96774.84;;;6.22;100.00
19884;BME280;10104;50.732;10.174;2024-03-02T05:14:50;96771.78;;;6.19;100.00
19884;BME280;10104;50.732;10.174;2024-03-02T05:17:30;96764.69;;;6.19;100.00
19884;BME280;10104;50.732;10.174;2024-03-02T05:20:11;96770.34;;;6.16;100.00
19884;BME280;10104;50.732;10.174;2024-03-02T05:22:51;96766.03;;;6.08;100.00
19884;BME280;10104;50.732;10.174;2024-03-02T05:25:31;96764.03;;;6.11;100.00
19884;BME280;10104;50.732;10.174;2024-03-02T05:28:12;96768.19;;;6.05;100.00
19884;BME280;10104;50.732;10.174;2024-03-02T05:30:52;96770.97;;;5.97;100.00
19884;BME280;10104;50.732;10.174;2024-03-02T05:33:32;96775.22;;;5.98;100.00
19884;BME280;10104;50.732;10.174;2024-03-02T05:36:13;96777.97;;;5.90;100.00
19884;BME280;10104;50.732;10.174;2024-03-02T05:38:53;96782.75;;;5.86;100.00
19884;BME280;10104;50.732;10.174;2024-03-02T05:41:34;96788.72;;;5.80;100.00
19884;BME280;10104;50.732;10.174;2024-03-02T05:44:14;96790.28;;;5.75;100.00
19884;BME280;10104;50.732;10.174;2024-03-02T05:46:55;96786.66;;;5.76;100.00
19884;BME280;10104;50.732;10.174;2024-03-02T05:49:36;96777.97;;;5.75;100.00
19884;BME280;10104;50.732;10.174;2024-03-02T05:52:16;96783.22;;;5.75;100.00
19884;BME280;10104;50.732;10.174;2024-03-02T05:54:56;96778.97;;;5.74;100.00
19884;BME280;10104;50.732;10.174;2024-03-02T05:57:37;96776.97;;;5.76;100.00
19884;BME280;10104;50.732;10.174;2024-03-02T06:00:35;96781.78;;;5.73;100.00
19884;BME280;10104;50.732;10.174;2024-03-02T06:03:15;96787.94;;;5.80;100.00
19884;BME280;10104;50.732;10.174;2024-03-02T06:05:56;96791.72;;;5.77;100.00
19884;BME280;10104;50.732;10.174;2024-03-02T06:08:36;96787.66;;;5.75;100.00
19884;BME280;10104;50.732;10.174;2024-03-02T06:11:18;96786.84;;;5.74;100.00
19884;BME280;10104;50.732;10.174;2024-03-02T06:13:59;96795.91;;;5.72;100.00
19884;BME280;10104;50.732;10.174;2024-03-02T06:16:39;96794.47;;;5.69;100.00
19884;BME280;10104;50.732;10.174;2024-03-02T06:19:19;96799.53;;;5.70;100.00
19884;BME280;10104;50.732;10.174;2024-03-02T06:22:00;96799.19;;;5.74;100.00
19884;BME280;10104;50.732;10.174;2024-03-02T06:24:40;96794.09;;;5.72;100.00
19884;BME280;10104;50.732;10.174;2024-03-02T06:27:20;96799.63;;;5.77;100.00
19884;BME280;10104;50.732;10.174;2024-03-02T06:30:00;96806.41;;;5.86;100.00
19884;BME280;10104;50.732;10.174;2024-03-02T06:32:40;96798.41;;;5.94;100.00
19884;BME280;10104;50.732;10.174;2024-03-02T06:35:20;96813.81;;;5.97;100.00
19884;BME280;10104;50.732;10.174;2024-03-02T06:38:01;96811.19;;;5.97;100.00
19884;BME280;10104;50.732;10.174;2024-03-02T06:40:41;96813.34;;;5.94;100.00
19884;BME280;10104;50.732;10.174;2024-03-02T06:43:22;96815.63;;;5.97;100.00
19884;BME280;10104;50.732;10.174;2024-03-02T06:46:03;96815.78;;;6.10;100.00
19884;BME280;10104;50.732;10.174;2024-03-02T06:48:45;96814.97;;;6.09;100.00
19884;BME280;10104;50.732;10.174;2024-03-02T06:51:25;96820.34;;;6.23;100.00
19884;BME280;10104;50.732;10.174;2024-03-02T06:54:05;96813.72;;;6.27;100.00
19884;BME280;10104;50.732;10.174;2024-03-02T06:56:45;96817.28;;;6.40;100.00
19884;BME280;10104;50.732;10.174;2024-03-02T06:59:25;96814.06;;;6.45;100.00
19884;BME280;10104;50.732;10.174;2024-03-02T07:02:05;96816.38;;;6.55;100.00
19884;BME280;10104;50.732;10.174;2024-03-02T07:04:45;96819.53;;;6.65;100.00
19884;BME280;10104;50.732;10.174;2024-03-02T07:07:25;96824.31;;;6.82;100.00
19884;BME280;10104;50.732;10.174;2024-03-02T07:10:06;96829.44;;;6.90;100.00
19884;BME280;10104;50.732;10.174;2024-03-02T07:12:47;96829.09;;;7.00;100.00
19884;BME280;10104;50.732;10.174;2024-03-02T07:15:27;96827.97;;;7.09;100.00
19884;BME280;10104;50.732;10.174;2024-03-02T07:18:07;96825.59;;;7.21;100.00
19884;BME280;10104;50.732;10.174;2024-03-02T07:20:47;96831.09;;;7.26;100.00
19884;BME280;10104;50.732;10.174;2024-03-02T07:23:29;96827.47;;;7.27;100.00
19884;BME280;10104;50.732;10.174;2024-03-02T07:26:10;96830.94;;;7.34;100.00
19884;BME280;10104;50.732;10.174;2024-03-02T07:28:54;96827.94;;;7.44;100.00
19884;BME280;10104;50.732;10.174;2024-03-02T07:31:34;96821.69;;;7.45;100.00
19884;BME280;10104;50.732;10.174;2024-03-02T07:34:15;96824.31;;;7.45;100.00
19884;BME280;10104;50.732;10.174;2024-03-02T07:36:55;96826.16;;;7.51;100.00
19884;BME280;10104;50.732;10.174;2024-03-02T07:39:36;96824.78;;;7.61;100.00
19884;BME280;10104;50.732;10.174;2024-03-02T07:42:16;96826.22;;;7.64;100.00
19884;BME280;10104;50.732;10.174;2024-03-02T07:44:56;96831.91;;;7.67;100.00
19884;BME280;10104;50.732;10.174;2024-03-02T07:47:37;96837.22;;;7.74;100.00
19884;BME280;10104;50.732;10.174;2024-03-02T07:50:17;96840.66;;;7.75;100.00
19884;BME280;10104;50.732;10.174;2024-03-02T07:52:57;96845.13;;;7.74;100.00
19884;BME280;10104;50.732;10.174;2024-03-02T07:55:37;96846.97;;;7.80;100.00
19884;BME280;10104;50.732;10.174;2024-03-02T07:58:17;96846.03;;;8.01;100.00
19884;BME280;10104;50.732;10.174;2024-03-02T08:00:59;96845.03;;;8.02;100.00
19884;BME280;10104;50.732;10.174;2024-03-02T08:03:41;96843.41;;;8.01;100.00
19884;BME280;10104;50.732;10.174;2024-03-02T08:06:22;96840.16;;;8.05;100.00
19884;BME280;10104;50.732;10.174;2024-03-02T08:09:03;96846.88;;;8.08;100.00
19884;BME280;10104;50.732;10.174;2024-03-02T08:11:49;96851.03;;;8.30;100.00
19884;BME280;10104;50.732;10.174;2024-03-02T08:14:29;96845.91;;;8.29;100.00
19884;BME280;10104;50.732;10.174;2024-03-02T08:17:09;96849.03;;;8.45;100.00
19884;BME280;10104;50.732;10.174;2024-03-02T08:19:51;96852.91;;;8.63;100.00
19884;BME280;10104;50.732;10.174;2024-03-02T08:22:31;96846.41;;;8.65;100.00
19884;BME280;10104;50.732;10.174;2024-03-02T08:25:11;96839.94;;;8.87;100.00
19884;BME280;10104;50.732;10.174;2024-03-02T08:27:51;96851.50;;;9.06;100.00
19884;BME280;10104;50.732;10.174;2024-03-02T08:30:32;96852.91;;;9.28;100.00
19884;BME280;10104;50.732;10.174;2024-03-02T08:33:12;96846.41;;;9.38;98.98
19884;BME280;10104;50.732;10.174;2024-03-02T08:35:52;96851.63;;;9.51;100.00
19884;BME280;10104;50.732;10.174;2024-03-02T08:38:32;96853.06;;;9.53;98.78
19884;BME280;10104;50.732;10.174;2024-03-02T08:41:13;96846.28;;;9.77;98.31
19884;BME280;10104;50.732;10.174;2024-03-02T08:43:56;96851.34;;;9.85;96.98
19884;BME280;10104;50.732;10.174;2024-03-02T08:46:36;96840.28;;;10.01;96.48
19884;BME280;10104;50.732;10.174;2024-03-02T08:49:17;96851.81;;;10.13;95.70
19884;BME280;10104;50.732;10.174;2024-03-02T08:51:57;96848.09;;;10.34;94.88
19884;BME280;10104;50.732;10.174;2024-03-02T08:54:41;96846.06;;;10.36;94.22
19884;BME280;10104;50.732;10.174;2024-03-02T08:57:30;96847.25;;;10.40;91.64
19884;BME280;10104;50.732;10.174;2024-03-02T09:00:11;96848.50;;;10.63;92.07
19884;BME280;10104;50.732;10.174;2024-03-02T09:02:51;96852.69;;;10.45;90.58
19884;BME280;10104;50.732;10.174;2024-03-02T09:05:32;96852.06;;;10.81;88.34
19884;BME280;10104;50.732;10.174;2024-03-02T09:08:12;96849.31;;;10.94;86.51
19884;BME280;10104;50.732;10.174;2024-03-02T09:10:52;96851.81;;;11.14;86.58
19884;BME280;10104;50.732;10.174;2024-03-02T09:13:33;96851.59;;;11.16;86.47
19884;BME280;10104;50.732;10.174;2024-03-02T09:16:14;96849.34;;;11.13;85.67
19884;BME280;10104;50.732;10.174;2024-03-02T09:18:54;96851.25;;;11.06;87.34
19884;BME280;10104;50.732;10.174;2024-03-02T09:21:34;96857.16;;;11.08;86.58
19884;BME280;10104;50.732;10.174;2024-03-02T09:24:14;96855.00;;;10.98;87.51
19884;BME280;10104;50.732;10.174;2024-03-02T09:26:57;96862.44;;;10.83;87.30
19884;BME280;10104;50.732;10.174;2024-03-02T09:29:38;96854.19;;;10.98;87.68
19884;BME280;10104;50.732;10.174;2024-03-02T09:32:18;96851.09;;;11.01;85.97
19884;BME280;10104;50.732;10.174;2024-03-02T09:34:58;96852.66;;;10.83;87.30
19884;BME280;10104;50.732;10.174;2024-03-02T09:37:39;96856.66;;;10.92;87.86
19884;BME280;10104;50.732;10.174;2024-03-02T09:40:21;96858.66;;;10.97;86.41
19884;BME280;10104;50.732;10.174;2024-03-02T09:43:02;96866.56;;;11.04;85.40
19884;BME280;10104;50.732;10.174;2024-03-02T09:45:44;96856.22;;;10.95;85.16
19884;BME280;10104;50.732;10.174;2024-03-02T09:48:25;96861.28;;;11.04;86.20
19884;BME280;10104;50.732;10.174;2024-03-02T09:51:05;96858.16;;;11.07;87.44
19884;BME280;10104;50.732;10.174;2024-03-02T09:53:47;96860.44;;;11.03;85.87
19884;BME280;10104;50.732;10.174;2024-03-02T09:56:27;96863.22;;;11.15;84.72
19884;BME280;10104;50.732;10.174;2024-03-02T09:59:07;96863.97;;;11.22;84.49
19884;BME280;10104;50.732;10.174;2024-03-02T10:02:01;96862.41;;;11.14;84.38
19884;BME280;10104;50.732;10.174;2024-03-02T10:04:42;96865.47;;;11.11;86.41
19884;BME280;10104;50.732;10.174;2024-03-02T10:07:23;96860.91;;;11.18;86.15
19884;BME280;10104;50.732;10.174;2024-03-02T10:10:15;96869.56;;;11.32;85.55
19884;BME280;10104;50.732;10.174;2024-03-02T10:13:04;96869.09;;;11.42;84.13
19884;BME280;10104;50.732;10.174;2024-03-02T10:15:45;96864.91;;;11.52;85.25
19884;BME280;10104;50.732;10.174;2024-03-02T10:18:27;96875.66;;;11.57;83.08
19884;BME280;10104;50.732;10.174;2024-03-02T10:21:14;96871.53;;;11.61;82.49
19884;BME280;10104;50.732;10.174;2024-03-02T10:24:06;96869.16;;;11.78;80.72
19884;BME280;10104;50.732;10.174;2024-03-02T10:26:47;96866.50;;;11.78;80.42
19884;BME280;10104;50.732;10.174;2024-03-02T10:29:29;96867.31;;;11.79;80.32
19884;BME280;10104;50.732;10.174;2024-03-02T10:32:10;96856.47;;;11.80;79.97
19884;BME280;10104;50.732;10.174;2024-03-02T10:34:51;96859.13;;;11.80;80.80
19884;BME280;10104;50.732;10.174;2024-03-02T10:37:32;96863.53;;;12.04;80.13
19884;BME280;10104;50.732;10.174;2024-03-02T10:40:12;96865.91;;;11.94;79.56
19884;BME280;10104;50.732;10.174;2024-03-02T10:42:53;96873.56;;;12.02;80.15
19884;BME280;10104;50.732;10.174;2024-03-02T10:45:33;96862.16;;;12.02;79.70
19884;BME280;10104;50.732;10.174;2024-03-02T10:48:14;96870.59;;;12.10;79.33
19884;BME280;10104;50.732;10.174;2024-03-02T10:50:54;96873.59;;;12.32;78.09
19884;BME280;10104;50.732;10.174;2024-03-02T10:53:34;96871.94;;;12.20;78.19
19884;BME280;10104;50.732;10.174;2024-03-02T10:56:21;96873.81;;;12.31;79.20
19884;BME280;10104;50.732;10.174;2024-03-02T11:02:06;96866.31;;;12.28;78.81
19884;BME280;10104;50.732;10.174;2024-03-02T11:04:49;96865.69;;;12.44;77.89
19884;BME280;10104;50.732;10.174;2024-03-02T11:07:30;96866.31;;;12.57;78.62
19884;BME280;10104;50.732;10.174;2024-03-02T11:10:11;96851.44;;;12.56;78.95
19884;BME280;10104;50.732;10.174;2024-03-02T11:13:02;96860.25;;;12.69;74.59
19884;BME280;10104;50.732;10.174;2024-03-02T11:15:45;96866.66;;;12.61;76.39
19884;BME280;10104;50.732;10.174;2024-03-02T11:18:26;96864.66;;;12.75;75.05
19884;BME280;10104;50.732;10.174;2024-03-02T11:21:07;96866.69;;;12.73;73.28
19884;BME280;10104;50.732;10.174;2024-03-02T11:23:47;96863.63;;;12.76;73.31
19884;BME280;10104;50.732;10.174;2024-03-02T11:26:28;96861.69;;;12.94;75.48
19884;BME280;10104;50.732;10.174;2024-03-02T11:29:08;96859.38;;;13.10;74.27
19884;BME280;10104;50.732;10.174;2024-03-02T11:31:57;96855.19;;;13.20;75.05
19884;BME280;10104;50.732;10.174;2024-03-02T11:34:41;96850.09;;;13.19;73.53
19884;BME280;10104;50.732;10.174;2024-03-02T11:37:25;96855.41;;;13.30;71.95
19884;BME280;10104;50.732;10.174;2024-03-02T11:40:09;96848.94;;;13.50;71.36
19884;BME280;10104;50.732;10.174;2024-03-02T11:42:49;96855.38;;;13.77;69.74
19884;BME280;10104;50.732;10.174;2024-03-02T11:45:30;96847.53;;;13.82;69.63
19884;BME280;10104;50.732;10.174;2024-03-02T11:48:14;96850.41;;;13.81;69.93
19884;BME280;10104;50.732;10.174;2024-03-02T11:50:58;96846.09;;;13.91;69.04
19884;BME280;10104;50.732;10.174;2024-03-02T11:53:39;96841.22;;;14.00;67.17
19884;BME280;10104;50.732;10.174;2024-03-02T11:56:20;96837.13;;;14.09;66.81
19884;BME280;10104;50.732;10.174;2024-03-02T11:59:01;96837.69;;;14.23;65.62
19884;BME280;10104;50.732;10.174;2024-03-02T12:01:41;96832.25;;;14.17;65.82
19884;BME280;10104;50.732;10.174;2024-03-02T12:04:27;96832.72;;;14.14;65.38
19884;BME280;10104;50.732;10.174;2024-03-02T12:07:09;96825.28;;;13.88;66.62
19884;BME280;10104;50.732;10.174;2024-03-02T12:09:59;96834.66;;;13.79;66.51
19884;BME280;10104;50.732;10.174;2024-03-02T12:12:39;96829.16;;;13.69;67.23
19884;BME280;10104;50.732;10.174;2024-03-02T12:15:23;96830.66;;;13.42;68.01
19884;BME280;10104;50.732;10.174;2024-03-02T12:18:06;96822.09;;;13.16;67.49
19884;BME280;10104;50.732;10.174;2024-03-02T12:20:48;96822.66;;;13.07;68.12
19884;BME280;10104;50.732;10.174;2024-03-02T12:23:30;96819.88;;;13.02;67.50
19884;BME280;10104;50.732;10.174;2024-03-02T12:26:10;96813.41;;;13.09;67.41
19884;BME280;10104;50.732;10.174;2024-03-02T12:28:54;96813.19;;;13.11;69.48
19884;BME280;10104;50.732;10.174;2024-03-02T12:31:34;96809.94;;;13.09;68.07
19884;BME280;10104;50.732;10.174;2024-03-02T12:34:16;96803.56;;;13.10;68.84
19884;BME280;10104;50.732;10.174;2024-03-02T12:36:58;96800.03;;;13.27;69.29
19884;BME280;10104;50.732;10.174;2024-03-02T12:39:38;96792.97;;;13.45;67.98
19884;BME280;10104;50.732;10.174;2024-03-02T12:42:19;96796.31;;;13.28;67.19
19884;BME280;10104;50.732;10.174;2024-03-02T12:44:59;96790.56;;;13.43;68.09
19884;BME280;10104;50.732;10.174;2024-03-02T12:47:40;96782.56;;;13.55;67.38
19884;BME280;10104;50.732;10.174;2024-03-02T12:50:21;96785.44;;;13.53;65.87
19884;BME280;10104;50.732;10.174;2024-03-02T12:53:02;96787.16;;;13.59;65.48
19884;BME280;10104;50.732;10.174;2024-03-02T12:55:42;96784.63;;;13.53;64.89
19884;BME280;10104;50.732;10.174;2024-03-02T12:58:24;96781.50;;;13.67;65.02
19884;BME280;10104;50.732;10.174;2024-03-02T13:01:08;96781.00;;;13.82;64.59
19884;BME280;10104;50.732;10.174;2024-03-02T13:03:54;96773.56;;;13.84;62.88
19884;BME280;10104;50.732;10.174;2024-03-02T13:06:37;96768.50;;;14.11;63.11
19884;BME280;10104;50.732;10.174;2024-03-02T13:09:17;96771.69;;;14.25;62.99
19884;BME280;10104;50.732;10.174;2024-03-02T13:11:58;96768.78;;;14.38;60.71
19884;BME280;10104;50.732;10.174;2024-03-02T13:14:40;96767.25;;;14.42;60.70
19884;BME280;10104;50.732;10.174;2024-03-02T13:17:20;96764.06;;;14.45;59.88
19884;BME280;10104;50.732;10.174;2024-03-02T13:20:01;96764.41;;;14.48;58.52
19884;BME280;10104;50.732;10.174;2024-03-02T13:22:44;96764.22;;;14.38;58.52
19884;BME280;10104;50.732;10.174;2024-03-02T13:25:24;96761.91;;;14.42;58.73
19884;BME280;10104;50.732;10.174;2024-03-02T13:28:04;96762.03;;;14.35;58.33
19884;BME280;10104;50.732;10.174;2024-03-02T13:30:45;96760.88;;;14.43;59.19
19884;BME280;10104;50.732;10.174;2024-03-02T13:33:25;96751.19;;;14.53;60.39
19884;BME280;10104;50.732;10.174;2024-03-02T13:36:06;96741.00;;;14.50;59.89
19884;BME280;10104;50.732;10.174;2024-03-02T13:38:46;96746.09;;;14.52;60.57
19884;BME280;10104;50.732;10.174;2024-03-02T13:41:26;96744.34;;;14.74;58.91
19884;BME280;10104;50.732;10.174;2024-03-02T13:44:06;96741.81;;;14.51;58.90
19884;BME280;10104;50.732;10.174;2024-03-02T13:46:47;96744.16;;;14.64;58.64
19884;BME280;10104;50.732;10.174;2024-03-02T13:49:28;96737.13;;;14.58;59.50
19884;BME280;10104;50.732;10.174;2024-03-02T13:52:17;96739.00;;;14.57;58.95
19884;BME280;10104;50.732;10.174;2024-03-02T13:54:58;96740.94;;;14.62;58.16
19884;BME280;10104;50.732;10.174;2024-03-02T13:57:38;96745.94;;;14.58;58.23
19884;BME280;10104;50.732;10.174;2024-03-02T14:00:19;96740.59;;;14.58;58.53
19884;BME280;10104;50.732;10.174;2024-03-02T14:03:00;96736.81;;;14.54;57.97
19884;BME280;10104;50.732;10.174;2024-03-02T14:05:40;96732.13;;;14.45;58.64
19884;BME280;10104;50.732;10.174;2024-03-02T14:08:20;96728.97;;;14.48;57.69